sensor_id;sensor_type;location;lat;lon;timestamp;P1;durP1;ratioP1;P2;durP2;ratioP2
82176;SDS011;71758;48.714;9.584;2023-11-21T00:02:01;9.50;;;3.60;;
82176;SDS011;71758;48.714;9.584;2023-11-21T00:04:26;8.63;;;2.85;;
82176;SDS011;71758;48.714;9.584;2023-11-21T00:06:53;7.80;;;2.80;;
82176;SDS011;71758;48.714;9.584;2023-11-21T00:09:19;10.40;;;3.28;;
82176;SDS011;71758;48.714;9.584;2023-11-21T00:11:44;8.88;;;3.33;;
82176;SDS011;71758;48.714;9.584;2023-11-21T00:14:13;9.98;;;2.83;;
82176;SDS011;71758;48.714;9.584;2023-11-21T00:16:40;10.30;;;3.20;;
82176;SDS011;71758;48.714;9.584;2023-11-21T00:19:06;9.35;;;3.55;;
82176;SDS011;71758;48.714;9.584;2023-11-21T00:21:31;10.02;;;3.25;;
82176;SDS011;71758;48.714;9.584;2023-11-21T00:23:57;6.88;;;3.03;;
82176;SDS011;71758;48.714;9.584;2023-11-21T00:26:22;11.07;;;3.00;;
82176;SDS011;71758;48.714;9.584;2023-11-21T00:28:49;10.80;;;3.20;;
82176;SDS011;71758;48.714;9.584;2023-11-21T00:31:15;7.25;;;3.30;;
82176;SDS011;71758;48.714;9.584;2023-11-21T00:33:40;9.15;;;3.65;;
82176;SDS011;71758;48.714;9.584;2023-11-21T00:36:06;10.93;;;4.00;;
82176;SDS011;71758;48.714;9.584;2023-11-21T00:38:34;9.93;;;3.03;;
82176;SDS011;71758;48.714;9.584;2023-11-21T00:41:05;8.38;;;2.88;;
82176;SDS011;71758;48.714;9.584;2023-11-21T00:43:31;13.80;;;3.03;;
82176;SDS011;71758;48.714;9.584;2023-11-21T00:45:58;7.53;;;2.95;;
82176;SDS011;71758;48.714;9.584;2023-11-21T00:48:24;8.27;;;2.70;;
82176;SDS011;71758;48.714;9.584;2023-11-21T00:50:49;10.48;;;3.13;;
82176;SDS011;71758;48.714;9.584;2023-11-21T00:53:15;6.40;;;2.60;;
82176;SDS011;71758;48.714;9.584;2023-11-21T00:55:40;7.93;;;2.90;;
82176;SDS011;71758;48.714;9.584;2023-11-21T00:58:06;7.10;;;2.45;;
82176;SDS011;71758;48.714;9.584;2023-11-21T01:00:32;7.53;;;2.58;;
82176;SDS011;71758;48.714;9.584;2023-11-21T01:03:00;9.48;;;2.60;;
82176;SDS011;71758;48.714;9.584;2023-11-21T01:05:27;9.52;;;2.90;;
82176;SDS011;71758;48.714;9.584;2023-11-21T01:07:52;7.93;;;3.50;;
82176;SDS011;71758;48.714;9.584;2023-11-21T01:10:18;12.48;;;3.40;;
82176;SDS011;71758;48.714;9.584;2023-11-21T01:12:43;9.15;;;3.65;;
82176;SDS011;71758;48.714;9.584;2023-11-21T01:15:09;11.68;;;4.10;;
82176;SDS011;71758;48.714;9.584;2023-11-21T01:17:36;10.40;;;4.13;;
82176;SDS011;71758;48.714;9.584;2023-11-21T01:20:03;13.50;;;5.10;;
82176;SDS011;71758;48.714;9.584;2023-11-21T01:22:34;9.20;;;4.10;;
82176;SDS011;71758;48.714;9.584;2023-11-21T01:25:00;9.48;;;3.75;;
82176;SDS011;71758;48.714;9.584;2023-11-21T01:27:25;9.88;;;3.88;;
82176;SDS011;71758;48.714;9.584;2023-11-21T01:29:51;11.75;;;4.32;;
82176;SDS011;71758;48.714;9.584;2023-11-21T01:32:18;12.57;;;3.55;;
82176;SDS011;71758;48.714;9.584;2023-11-21T01:34:43;10.75;;;3.17;;
82176;SDS011;71758;48.714;9.584;2023-11-21T01:37:09;9.70;;;3.83;;
82176;SDS011;71758;48.714;9.584;2023-11-21T01:39:37;12.25;;;2.92;;
82176;SDS011;71758;48.714;9.584;2023-11-21T01:42:04;10.85;;;3.03;;
82176;SDS011;71758;48.714;9.584;2023-11-21T01:44:30;9.35;;;2.75;;
82176;SDS011;71758;48.714;9.584;2023-11-21T01:46:55;8.70;;;3.40;;
82176;SDS011;71758;48.714;9.584;2023-11-21T01:49:22;8.93;;;2.97;;
82176;SDS011;71758;48.714;9.584;2023-11-21T01:51:48;9.85;;;3.38;;
82176;SDS011;71758;48.714;9.584;2023-11-21T01:54:17;8.23;;;3.25;;
82176;SDS011;71758;48.714;9.584;2023-11-21T01:56:46;10.73;;;3.13;;
82176;SDS011;71758;48.714;9.584;2023-11-21T01:59:12;9.48;;;4.05;;
82176;SDS011;71758;48.714;9.584;2023-11-21T02:01:41;8.65;;;3.83;;
82176;SDS011;71758;48.714;9.584;2023-11-21T02:04:06;12.30;;;3.78;;
82176;SDS011;71758;48.714;9.584;2023-11-21T02:06:33;10.45;;;4.10;;
82176;SDS011;71758;48.714;9.584;2023-11-21T02:08:59;8.93;;;3.72;;
82176;SDS011;71758;48.714;9.584;2023-11-21T02:11:24;9.15;;;3.80;;
82176;SDS011;71758;48.714;9.584;2023-11-21T02:13:53;9.40;;;3.03;;
82176;SDS011;71758;48.714;9.584;2023-11-21T02:16:19;9.00;;;2.90;;
82176;SDS011;71758;48.714;9.584;2023-11-21T02:18:45;7.50;;;2.20;;
82176;SDS011;71758;48.714;9.584;2023-11-21T02:21:13;4.43;;;2.03;;
82176;SDS011;71758;48.714;9.584;2023-11-21T02:23:39;6.38;;;2.25;;
82176;SDS011;71758;48.714;9.584;2023-11-21T02:26:09;8.20;;;2.80;;
82176;SDS011;71758;48.714;9.584;2023-11-21T02:28:34;10.00;;;2.40;;
82176;SDS011;71758;48.714;9.584;2023-11-21T02:31:00;5.85;;;1.80;;
82176;SDS011;71758;48.714;9.584;2023-11-21T02:33:27;6.63;;;2.10;;
82176;SDS011;71758;48.714;9.584;2023-11-21T02:35:53;9.23;;;2.40;;
82176;SDS011;71758;48.714;9.584;2023-11-21T02:38:20;8.82;;;2.63;;
82176;SDS011;71758;48.714;9.584;2023-11-21T02:40:48;8.93;;;2.70;;
82176;SDS011;71758;48.714;9.584;2023-11-21T02:43:14;7.65;;;2.60;;
82176;SDS011;71758;48.714;9.584;2023-11-21T02:45:39;9.18;;;2.42;;
82176;SDS011;71758;48.714;9.584;2023-11-21T02:48:06;8.23;;;3.17;;
82176;SDS011;71758;48.714;9.584;2023-11-21T02:50:32;8.50;;;2.67;;
82176;SDS011;71758;48.714;9.584;2023-11-21T02:52:57;9.77;;;2.35;;
82176;SDS011;71758;48.714;9.584;2023-11-21T02:55:25;9.95;;;2.25;;
82176;SDS011;71758;48.714;9.584;2023-11-21T02:57:51;12.05;;;2.90;;
82176;SDS011;71758;48.714;9.584;2023-11-21T03:00:16;8.15;;;2.80;;
82176;SDS011;71758;48.714;9.584;2023-11-21T03:02:42;10.27;;;2.65;;
82176;SDS011;71758;48.714;9.584;2023-11-21T03:05:08;9.32;;;2.70;;
82176;SDS011;71758;48.714;9.584;2023-11-21T03:07:34;8.32;;;2.50;;
82176;SDS011;71758;48.714;9.584;2023-11-21T03:10:00;9.70;;;2.40;;
82176;SDS011;71758;48.714;9.584;2023-11-21T03:12:25;5.53;;;2.20;;
82176;SDS011;71758;48.714;9.584;2023-11-21T03:14:51;7.07;;;2.33;;
82176;SDS011;71758;48.714;9.584;2023-11-21T03:17:16;7.80;;;2.47;;
82176;SDS011;71758;48.714;9.584;2023-11-21T03:19:42;6.97;;;2.22;;
82176;SDS011;71758;48.714;9.584;2023-11-21T03:22:07;6.15;;;2.08;;
82176;SDS011;71758;48.714;9.584;2023-11-21T03:24:33;4.60;;;2.20;;
82176;SDS011;71758;48.714;9.584;2023-11-21T03:26:59;6.80;;;2.53;;
82176;SDS011;71758;48.714;9.584;2023-11-21T03:29:25;8.25;;;2.92;;
82176;SDS011;71758;48.714;9.584;2023-11-21T03:31:50;10.63;;;4.03;;
82176;SDS011;71758;48.714;9.584;2023-11-21T03:34:23;8.52;;;3.67;;
82176;SDS011;71758;48.714;9.584;2023-11-21T03:36:50;10.52;;;3.78;;
82176;SDS011;71758;48.714;9.584;2023-11-21T03:39:15;9.38;;;3.83;;
82176;SDS011;71758;48.714;9.584;2023-11-21T03:41:40;9.30;;;4.20;;
82176;SDS011;71758;48.714;9.584;2023-11-21T03:44:06;13.30;;;3.42;;
82176;SDS011;71758;48.714;9.584;2023-11-21T03:46:31;7.90;;;3.47;;
82176;SDS011;71758;48.714;9.584;2023-11-21T03:48:57;10.23;;;3.17;;
82176;SDS011;71758;48.714;9.584;2023-11-21T03:51:22;8.82;;;3.13;;
82176;SDS011;71758;48.714;9.584;2023-11-21T03:53:47;7.72;;;2.65;;
82176;SDS011;71758;48.714;9.584;2023-11-21T03:56:13;7.20;;;2.72;;
82176;SDS011;71758;48.714;9.584;2023-11-21T03:58:39;6.18;;;2.42;;
82176;SDS011;71758;48.714;9.584;2023-11-21T04:01:04;9.00;;;2.90;;
82176;SDS011;71758;48.714;9.584;2023-11-21T04:03:30;8.00;;;2.60;;
82176;SDS011;71758;48.714;9.584;2023-11-21T04:05:55;8.68;;;2.80;;
82176;SDS011;71758;48.714;9.584;2023-11-21T04:08:20;5.40;;;2.78;;
82176;SDS011;71758;48.714;9.584;2023-11-21T04:10:46;8.85;;;2.95;;
82176;SDS011;71758;48.714;9.584;2023-11-21T04:13:11;8.30;;;2.80;;
82176;SDS011;71758;48.714;9.584;2023-11-21T04:15:37;7.55;;;2.20;;
82176;SDS011;71758;48.714;9.584;2023-11-21T04:18:02;9.07;;;2.78;;
82176;SDS011;71758;48.714;9.584;2023-11-21T04:20:28;8.60;;;2.55;;
82176;SDS011;71758;48.714;9.584;2023-11-21T04:22:53;9.93;;;2.70;;
82176;SDS011;71758;48.714;9.584;2023-11-21T04:25:18;11.52;;;3.25;;
82176;SDS011;71758;48.714;9.584;2023-11-21T04:27:44;7.38;;;3.05;;
82176;SDS011;71758;48.714;9.584;2023-11-21T04:30:10;8.05;;;3.65;;
82176;SDS011;71758;48.714;9.584;2023-11-21T04:32:36;9.30;;;3.80;;
82176;SDS011;71758;48.714;9.584;2023-11-21T04:35:02;9.48;;;3.58;;
82176;SDS011;71758;48.714;9.584;2023-11-21T04:37:28;10.70;;;4.38;;
82176;SDS011;71758;48.714;9.584;2023-11-21T04:39:54;8.10;;;4.05;;
82176;SDS011;71758;48.714;9.584;2023-11-21T04:42:19;10.02;;;4.10;;
82176;SDS011;71758;48.714;9.584;2023-11-21T04:44:45;10.27;;;4.10;;
82176;SDS011;71758;48.714;9.584;2023-11-21T04:47:10;7.55;;;3.33;;
82176;SDS011;71758;48.714;9.584;2023-11-21T04:49:36;8.55;;;3.60;;
82176;SDS011;71758;48.714;9.584;2023-11-21T04:52:01;8.18;;;3.03;;
82176;SDS011;71758;48.714;9.584;2023-11-21T04:54:28;7.70;;;3.20;;
82176;SDS011;71758;48.714;9.584;2023-11-21T04:56:54;7.68;;;2.83;;
82176;SDS011;71758;48.714;9.584;2023-11-21T04:59:19;9.32;;;2.50;;
82176;SDS011;71758;48.714;9.584;2023-11-21T05:01:44;8.25;;;3.30;;
82176;SDS011;71758;48.714;9.584;2023-11-21T05:04:10;8.93;;;2.80;;
82176;SDS011;71758;48.714;9.584;2023-11-21T05:06:35;8.07;;;3.00;;
82176;SDS011;71758;48.714;9.584;2023-11-21T05:09:00;7.50;;;2.70;;
82176;SDS011;71758;48.714;9.584;2023-11-21T05:11:26;11.77;;;3.25;;
82176;SDS011;71758;48.714;9.584;2023-11-21T05:13:52;12.07;;;3.55;;
82176;SDS011;71758;48.714;9.584;2023-11-21T05:16:19;10.73;;;3.88;;
82176;SDS011;71758;48.714;9.584;2023-11-21T05:18:45;8.50;;;4.55;;
82176;SDS011;71758;48.714;9.584;2023-11-21T05:21:10;12.75;;;4.53;;
82176;SDS011;71758;48.714;9.584;2023-11-21T05:23:35;7.03;;;2.58;;
82176;SDS011;71758;48.714;9.584;2023-11-21T05:26:02;7.05;;;2.40;;
82176;SDS011;71758;48.714;9.584;2023-11-21T05:28:28;7.85;;;3.00;;
82176;SDS011;71758;48.714;9.584;2023-11-21T05:30:53;5.82;;;2.80;;
82176;SDS011;71758;48.714;9.584;2023-11-21T05:33:18;6.35;;;2.97;;
82176;SDS011;71758;48.714;9.584;2023-11-21T05:35:44;8.70;;;3.05;;
82176;SDS011;71758;48.714;9.584;2023-11-21T05:38:09;7.85;;;2.55;;
82176;SDS011;71758;48.714;9.584;2023-11-21T05:40:34;5.90;;;2.40;;
82176;SDS011;71758;48.714;9.584;2023-11-21T05:43:00;4.40;;;2.00;;
82176;SDS011;71758;48.714;9.584;2023-11-21T05:45:25;7.85;;;2.47;;
82176;SDS011;71758;48.714;9.584;2023-11-21T05:47:50;6.75;;;2.28;;
82176;SDS011;71758;48.714;9.584;2023-11-21T05:50:16;6.95;;;2.35;;
82176;SDS011;71758;48.714;9.584;2023-11-21T05:52:42;8.60;;;3.15;;
82176;SDS011;71758;48.714;9.584;2023-11-21T05:55:09;5.15;;;2.22;;
82176;SDS011;71758;48.714;9.584;2023-11-21T05:57:35;7.72;;;2.75;;
82176;SDS011;71758;48.714;9.584;2023-11-21T06:00:08;7.32;;;2.80;;
82176;SDS011;71758;48.714;9.584;2023-11-21T06:02:36;6.65;;;2.50;;
82176;SDS011;71758;48.714;9.584;2023-11-21T06:05:05;5.18;;;2.42;;
82176;SDS011;71758;48.714;9.584;2023-11-21T06:07:31;8.30;;;3.60;;
82176;SDS011;71758;48.714;9.584;2023-11-21T06:09:57;7.68;;;3.42;;
82176;SDS011;71758;48.714;9.584;2023-11-21T06:12:22;8.80;;;3.28;;
82176;SDS011;71758;48.714;9.584;2023-11-21T06:14:47;12.63;;;4.05;;
82176;SDS011;71758;48.714;9.584;2023-11-21T06:17:13;10.82;;;4.07;;
82176;SDS011;71758;48.714;9.584;2023-11-21T06:19:39;11.50;;;3.85;;
82176;SDS011;71758;48.714;9.584;2023-11-21T06:22:05;6.57;;;3.35;;
82176;SDS011;71758;48.714;9.584;2023-11-21T06:24:31;8.57;;;3.95;;
82176;SDS011;71758;48.714;9.584;2023-11-21T06:26:56;9.90;;;3.85;;
82176;SDS011;71758;48.714;9.584;2023-11-21T06:29:22;9.50;;;3.75;;
82176;SDS011;71758;48.714;9.584;2023-11-21T06:31:47;9.32;;;3.40;;
82176;SDS011;71758;48.714;9.584;2023-11-21T06:34:12;7.57;;;3.22;;
82176;SDS011;71758;48.714;9.584;2023-11-21T06:36:38;10.20;;;3.63;;
82176;SDS011;71758;48.714;9.584;2023-11-21T06:39:04;6.63;;;3.05;;
82176;SDS011;71758;48.714;9.584;2023-11-21T06:43:59;7.55;;;2.50;;
82176;SDS011;71758;48.714;9.584;2023-11-21T06:46:24;6.38;;;2.00;;
82176;SDS011;71758;48.714;9.584;2023-11-21T06:48:49;4.15;;;1.88;;
82176;SDS011;71758;48.714;9.584;2023-11-21T06:51:15;5.45;;;2.05;;
82176;SDS011;71758;48.714;9.584;2023-11-21T06:53:41;5.32;;;2.10;;
82176;SDS011;71758;48.714;9.584;2023-11-21T06:56:15;5.18;;;1.77;;
82176;SDS011;71758;48.714;9.584;2023-11-21T06:58:41;5.88;;;2.00;;
82176;SDS011;71758;48.714;9.584;2023-11-21T07:01:06;5.70;;;1.83;;
82176;SDS011;71758;48.714;9.584;2023-11-21T07:03:32;6.50;;;2.30;;
82176;SDS011;71758;48.714;9.584;2023-11-21T07:05:57;7.68;;;2.42;;
82176;SDS011;71758;48.714;9.584;2023-11-21T07:08:22;9.63;;;2.60;;
82176;SDS011;71758;48.714;9.584;2023-11-21T07:10:48;7.45;;;2.50;;
82176;SDS011;71758;48.714;9.584;2023-11-21T07:13:14;5.78;;;2.30;;
82176;SDS011;71758;48.714;9.584;2023-11-21T07:15:40;5.57;;;2.70;;
82176;SDS011;71758;48.714;9.584;2023-11-21T07:18:05;8.30;;;2.72;;
82176;SDS011;71758;48.714;9.584;2023-11-21T07:20:32;6.03;;;2.50;;
82176;SDS011;71758;48.714;9.584;2023-11-21T07:22:58;5.55;;;2.50;;
82176;SDS011;71758;48.714;9.584;2023-11-21T07:25:24;5.95;;;2.72;;
82176;SDS011;71758;48.714;9.584;2023-11-21T07:27:51;6.57;;;3.08;;
82176;SDS011;71758;48.714;9.584;2023-11-21T07:30:16;6.82;;;2.65;;
82176;SDS011;71758;48.714;9.584;2023-11-21T07:32:42;8.20;;;2.85;;
82176;SDS011;71758;48.714;9.584;2023-11-21T07:35:11;7.60;;;3.58;;
82176;SDS011;71758;48.714;9.584;2023-11-21T07:37:36;10.57;;;4.05;;
82176;SDS011;71758;48.714;9.584;2023-11-21T07:40:02;9.20;;;4.03;;
82176;SDS011;71758;48.714;9.584;2023-11-21T07:42:28;11.90;;;4.07;;
82176;SDS011;71758;48.714;9.584;2023-11-21T07:44:53;6.20;;;2.50;;
82176;SDS011;71758;48.714;9.584;2023-11-21T07:47:19;5.78;;;2.50;;
82176;SDS011;71758;48.714;9.584;2023-11-21T07:49:44;6.53;;;2.40;;
82176;SDS011;71758;48.714;9.584;2023-11-21T07:52:10;7.32;;;2.40;;
82176;SDS011;71758;48.714;9.584;2023-11-21T07:54:35;5.57;;;1.85;;
82176;SDS011;71758;48.714;9.584;2023-11-21T07:57:01;5.50;;;1.52;;
82176;SDS011;71758;48.714;9.584;2023-11-21T07:59:27;4.57;;;2.50;;
82176;SDS011;71758;48.714;9.584;2023-11-21T08:01:53;4.10;;;1.50;;
82176;SDS011;71758;48.714;9.584;2023-11-21T08:04:19;4.65;;;1.45;;
82176;SDS011;71758;48.714;9.584;2023-11-21T08:06:44;5.28;;;1.40;;
82176;SDS011;71758;48.714;9.584;2023-11-21T08:09:09;5.35;;;1.42;;
82176;SDS011;71758;48.714;9.584;2023-11-21T08:11:35;4.18;;;1.42;;
82176;SDS011;71758;48.714;9.584;2023-11-21T08:14:00;4.43;;;1.50;;
82176;SDS011;71758;48.714;9.584;2023-11-21T08:16:26;5.28;;;1.50;;
82176;SDS011;71758;48.714;9.584;2023-11-21T08:18:52;4.43;;;1.55;;
82176;SDS011;71758;48.714;9.584;2023-11-21T08:21:17;4.38;;;1.40;;
82176;SDS011;71758;48.714;9.584;2023-11-21T08:23:44;4.30;;;1.67;;
82176;SDS011;71758;48.714;9.584;2023-11-21T08:26:09;4.72;;;1.60;;
82176;SDS011;71758;48.714;9.584;2023-11-21T08:28:34;6.05;;;1.60;;
82176;SDS011;71758;48.714;9.584;2023-11-21T08:31:00;4.03;;;1.42;;
82176;SDS011;71758;48.714;9.584;2023-11-21T08:33:26;4.15;;;1.30;;
82176;SDS011;71758;48.714;9.584;2023-11-21T08:35:51;4.40;;;1.20;;
82176;SDS011;71758;48.714;9.584;2023-11-21T08:38:17;4.45;;;1.30;;
82176;SDS011;71758;48.714;9.584;2023-11-21T08:40:42;6.82;;;1.70;;
82176;SDS011;71758;48.714;9.584;2023-11-21T08:43:08;4.50;;;1.90;;
82176;SDS011;71758;48.714;9.584;2023-11-21T08:45:33;6.50;;;2.60;;
82176;SDS011;71758;48.714;9.584;2023-11-21T08:47:59;5.25;;;1.90;;
82176;SDS011;71758;48.714;9.584;2023-11-21T08:50:25;8.52;;;1.88;;
82176;SDS011;71758;48.714;9.584;2023-11-21T08:52:50;6.35;;;1.77;;
82176;SDS011;71758;48.714;9.584;2023-11-21T08:55:16;4.30;;;1.80;;
82176;SDS011;71758;48.714;9.584;2023-11-21T08:57:43;4.47;;;1.60;;
82176;SDS011;71758;48.714;9.584;2023-11-21T09:00:09;4.28;;;1.52;;
82176;SDS011;71758;48.714;9.584;2023-11-21T09:02:44;6.32;;;2.05;;
82176;SDS011;71758;48.714;9.584;2023-11-21T09:05:10;6.72;;;1.95;;
82176;SDS011;71758;48.714;9.584;2023-11-21T09:07:36;4.88;;;2.22;;
82176;SDS011;71758;48.714;9.584;2023-11-21T09:10:03;5.72;;;1.95;;
82176;SDS011;71758;48.714;9.584;2023-11-21T09:12:29;4.43;;;1.60;;
82176;SDS011;71758;48.714;9.584;2023-11-21T09:14:54;4.78;;;1.88;;
82176;SDS011;71758;48.714;9.584;2023-11-21T09:17:19;7.53;;;2.03;;
82176;SDS011;71758;48.714;9.584;2023-11-21T09:19:45;6.43;;;2.00;;
82176;SDS011;71758;48.714;9.584;2023-11-21T09:22:14;6.00;;;1.55;;
82176;SDS011;71758;48.714;9.584;2023-11-21T09:24:40;3.92;;;1.42;;
82176;SDS011;71758;48.714;9.584;2023-11-21T09:27:05;5.35;;;1.40;;
82176;SDS011;71758;48.714;9.584;2023-11-21T09:29:31;3.85;;;1.42;;
82176;SDS011;71758;48.714;9.584;2023-11-21T09:31:57;6.28;;;1.50;;
82176;SDS011;71758;48.714;9.584;2023-11-21T09:34:24;3.25;;;1.20;;
82176;SDS011;71758;48.714;9.584;2023-11-21T09:36:50;5.95;;;2.13;;
82176;SDS011;71758;48.714;9.584;2023-11-21T09:39:16;3.70;;;1.10;;
82176;SDS011;71758;48.714;9.584;2023-11-21T09:44:16;3.35;;;1.33;;
82176;SDS011;71758;48.714;9.584;2023-11-21T09:46:43;7.22;;;1.60;;
82176;SDS011;71758;48.714;9.584;2023-11-21T09:49:09;3.63;;;1.30;;
82176;SDS011;71758;48.714;9.584;2023-11-21T09:51:42;3.25;;;1.23;;
82176;SDS011;71758;48.714;9.584;2023-11-21T09:54:08;3.45;;;1.23;;
82176;SDS011;71758;48.714;9.584;2023-11-21T09:56:35;3.38;;;1.20;;
82176;SDS011;71758;48.714;9.584;2023-11-21T09:59:02;6.45;;;1.20;;
82176;SDS011;71758;48.714;9.584;2023-11-21T10:01:31;3.35;;;1.00;;
82176;SDS011;71758;48.714;9.584;2023-11-21T10:03:57;3.92;;;0.90;;
82176;SDS011;71758;48.714;9.584;2023-11-21T10:06:24;3.92;;;0.80;;
82176;SDS011;71758;48.714;9.584;2023-11-21T10:08:52;3.00;;;0.70;;
82176;SDS011;71758;48.714;9.584;2023-11-21T10:11:18;3.17;;;0.60;;
82176;SDS011;71758;48.714;9.584;2023-11-21T10:13:45;3.22;;;0.50;;
82176;SDS011;71758;48.714;9.584;2023-11-21T10:16:12;2.00;;;0.60;;
82176;SDS011;71758;48.714;9.584;2023-11-21T10:18:41;2.92;;;0.70;;
82176;SDS011;71758;48.714;9.584;2023-11-21T10:21:07;2.42;;;0.65;;
82176;SDS011;71758;48.714;9.584;2023-11-21T10:23:34;3.13;;;0.60;;
82176;SDS011;71758;48.714;9.584;2023-11-21T10:25:59;2.40;;;0.60;;
82176;SDS011;71758;48.714;9.584;2023-11-21T10:28:26;2.35;;;0.60;;
82176;SDS011;71758;48.714;9.584;2023-11-21T10:30:51;3.08;;;0.73;;
82176;SDS011;71758;48.714;9.584;2023-11-21T10:33:17;2.10;;;0.50;;
82176;SDS011;71758;48.714;9.584;2023-11-21T10:35:52;3.75;;;0.88;;
82176;SDS011;71758;48.714;9.584;2023-11-21T10:38:20;3.75;;;0.80;;
82176;SDS011;71758;48.714;9.584;2023-11-21T10:40:51;2.58;;;0.73;;
82176;SDS011;71758;48.714;9.584;2023-11-21T10:43:17;2.40;;;0.63;;
82176;SDS011;71758;48.714;9.584;2023-11-21T10:45:43;2.78;;;0.80;;
82176;SDS011;71758;48.714;9.584;2023-11-21T10:48:10;3.38;;;0.70;;
82176;SDS011;71758;48.714;9.584;2023-11-21T10:50:38;2.20;;;0.68;;
82176;SDS011;71758;48.714;9.584;2023-11-21T10:53:04;3.47;;;0.60;;
82176;SDS011;71758;48.714;9.584;2023-11-21T10:55:30;3.63;;;0.80;;
82176;SDS011;71758;48.714;9.584;2023-11-21T10:57:58;4.53;;;0.88;;
82176;SDS011;71758;48.714;9.584;2023-11-21T11:00:26;3.20;;;1.00;;
82176;SDS011;71758;48.714;9.584;2023-11-21T11:02:52;2.72;;;0.70;;
82176;SDS011;71758;48.714;9.584;2023-11-21T11:05:20;2.75;;;0.82;;
82176;SDS011;71758;48.714;9.584;2023-11-21T11:07:50;3.60;;;0.70;;
82176;SDS011;71758;48.714;9.584;2023-11-21T11:10:22;3.58;;;1.00;;
82176;SDS011;71758;48.714;9.584;2023-11-21T11:12:51;5.03;;;0.90;;
82176;SDS011;71758;48.714;9.584;2023-11-21T11:15:17;4.32;;;0.77;;
82176;SDS011;71758;48.714;9.584;2023-11-21T11:17:43;4.50;;;1.00;;
82176;SDS011;71758;48.714;9.584;2023-11-21T11:20:11;4.35;;;0.90;;
82176;SDS011;71758;48.714;9.584;2023-11-21T11:22:42;2.60;;;0.73;;
82176;SDS011;71758;48.714;9.584;2023-11-21T11:33:10;5.00;;;1.30;;
82176;SDS011;71758;48.714;9.584;2023-11-21T11:38:33;4.25;;;1.63;;
82176;SDS011;71758;48.714;9.584;2023-11-21T11:41:01;4.38;;;1.63;;
82176;SDS011;71758;48.714;9.584;2023-11-21T11:43:31;5.20;;;1.58;;
82176;SDS011;71758;48.714;9.584;2023-11-21T11:46:08;6.35;;;1.80;;
82176;SDS011;71758;48.714;9.584;2023-11-21T11:48:37;5.32;;;1.73;;
82176;SDS011;71758;48.714;9.584;2023-11-21T11:51:11;4.75;;;1.40;;
82176;SDS011;71758;48.714;9.584;2023-11-21T11:53:40;2.80;;;0.90;;
82176;SDS011;71758;48.714;9.584;2023-11-21T11:58:49;3.20;;;1.00;;
82176;SDS011;71758;48.714;9.584;2023-11-21T12:01:18;3.22;;;1.20;;
82176;SDS011;71758;48.714;9.584;2023-11-21T12:03:44;2.90;;;1.10;;
82176;SDS011;71758;48.714;9.584;2023-11-21T12:06:10;4.70;;;1.30;;
82176;SDS011;71758;48.714;9.584;2023-11-21T12:08:36;2.78;;;1.10;;
82176;SDS011;71758;48.714;9.584;2023-11-21T12:11:02;16.20;;;7.57;;
82176;SDS011;71758;48.714;9.584;2023-11-21T12:13:28;3.55;;;0.70;;
82176;SDS011;71758;48.714;9.584;2023-11-21T12:15:54;2.20;;;0.80;;
82176;SDS011;71758;48.714;9.584;2023-11-21T12:18:20;3.00;;;0.80;;
82176;SDS011;71758;48.714;9.584;2023-11-21T12:20:46;2.10;;;0.60;;
82176;SDS011;71758;48.714;9.584;2023-11-21T12:23:13;2.92;;;0.93;;
82176;SDS011;71758;48.714;9.584;2023-11-21T12:25:40;2.90;;;0.60;;
82176;SDS011;71758;48.714;9.584;2023-11-21T12:28:06;3.53;;;1.17;;
82176;SDS011;71758;48.714;9.584;2023-11-21T12:30:33;5.07;;;1.25;;
82176;SDS011;71758;48.714;9.584;2023-11-21T12:33:03;5.22;;;1.58;;
82176;SDS011;71758;48.714;9.584;2023-11-21T12:35:33;2.92;;;1.02;;
82176;SDS011;71758;48.714;9.584;2023-11-21T12:37:59;5.07;;;1.00;;
82176;SDS011;71758;48.714;9.584;2023-11-21T12:40:27;3.67;;;0.90;;
82176;SDS011;71758;48.714;9.584;2023-11-21T12:42:54;3.33;;;1.10;;
82176;SDS011;71758;48.714;9.584;2023-11-21T12:45:27;5.38;;;1.73;;
82176;SDS011;71758;48.714;9.584;2023-11-21T12:47:57;3.45;;;0.88;;
82176;SDS011;71758;48.714;9.584;2023-11-21T12:50:33;3.80;;;1.30;;
82176;SDS011;71758;48.714;9.584;2023-11-21T12:53:02;3.17;;;1.15;;
82176;SDS011;71758;48.714;9.584;2023-11-21T12:55:30;3.22;;;1.13;;
82176;SDS011;71758;48.714;9.584;2023-11-21T12:58:02;2.90;;;1.23;;
82176;SDS011;71758;48.714;9.584;2023-11-21T13:03:11;3.92;;;1.02;;
82176;SDS011;71758;48.714;9.584;2023-11-21T13:05:45;3.58;;;1.50;;
82176;SDS011;71758;48.714;9.584;2023-11-21T13:08:12;3.95;;;1.40;;
82176;SDS011;71758;48.714;9.584;2023-11-21T13:10:39;3.08;;;1.52;;
82176;SDS011;71758;48.714;9.584;2023-11-21T13:13:08;3.22;;;1.17;;
82176;SDS011;71758;48.714;9.584;2023-11-21T13:15:35;5.13;;;1.10;;
82176;SDS011;71758;48.714;9.584;2023-11-21T13:18:12;5.47;;;1.30;;
82176;SDS011;71758;48.714;9.584;2023-11-21T13:20:38;2.90;;;1.20;;
82176;SDS011;71758;48.714;9.584;2023-11-21T13:23:07;4.10;;;1.17;;
82176;SDS011;71758;48.714;9.584;2023-11-21T13:25:33;2.90;;;0.90;;
82176;SDS011;71758;48.714;9.584;2023-11-21T13:27:58;3.10;;;0.68;;
82176;SDS011;71758;48.714;9.584;2023-11-21T13:30:24;3.15;;;0.60;;
82176;SDS011;71758;48.714;9.584;2023-11-21T13:32:58;3.28;;;0.75;;
82176;SDS011;71758;48.714;9.584;2023-11-21T13:35:30;2.40;;;0.80;;
82176;SDS011;71758;48.714;9.584;2023-11-21T13:38:02;3.15;;;0.90;;
82176;SDS011;71758;48.714;9.584;2023-11-21T13:40:31;3.45;;;0.80;;
82176;SDS011;71758;48.714;9.584;2023-11-21T13:42:59;3.85;;;0.90;;
82176;SDS011;71758;48.714;9.584;2023-11-21T13:45:25;2.97;;;0.80;;
82176;SDS011;71758;48.714;9.584;2023-11-21T13:47:52;3.22;;;1.10;;
82176;SDS011;71758;48.714;9.584;2023-11-21T13:50:27;1.58;;;0.50;;
82176;SDS011;71758;48.714;9.584;2023-11-21T13:53:02;2.65;;;0.60;;
82176;SDS011;71758;48.714;9.584;2023-11-21T13:55:41;1.48;;;0.40;;
82176;SDS011;71758;48.714;9.584;2023-11-21T13:58:07;2.20;;;0.45;;
82176;SDS011;71758;48.714;9.584;2023-11-21T14:00:35;2.40;;;0.50;;
82176;SDS011;71758;48.714;9.584;2023-11-21T14:03:26;1.48;;;0.50;;
82176;SDS011;71758;48.714;9.584;2023-11-21T14:06:07;1.42;;;0.40;;
82176;SDS011;71758;48.714;9.584;2023-11-21T14:08:39;2.35;;;0.80;;
82176;SDS011;71758;48.714;9.584;2023-11-21T14:11:06;9.40;;;0.95;;
82176;SDS011;71758;48.714;9.584;2023-11-21T14:13:32;2.55;;;0.90;;
82176;SDS011;71758;48.714;9.584;2023-11-21T14:15:58;3.42;;;1.00;;
82176;SDS011;71758;48.714;9.584;2023-11-21T14:18:27;2.80;;;1.02;;
82176;SDS011;71758;48.714;9.584;2023-11-21T14:21:00;3.85;;;1.50;;
82176;SDS011;71758;48.714;9.584;2023-11-21T14:23:26;11.23;;;4.15;;
82176;SDS011;71758;48.714;9.584;2023-11-21T14:25:51;2.30;;;0.70;;
82176;SDS011;71758;48.714;9.584;2023-11-21T14:28:17;2.22;;;0.82;;
82176;SDS011;71758;48.714;9.584;2023-11-21T14:30:44;2.38;;;0.90;;
82176;SDS011;71758;48.714;9.584;2023-11-21T14:33:11;8.98;;;2.08;;
82176;SDS011;71758;48.714;9.584;2023-11-21T14:35:37;3.70;;;1.77;;
82176;SDS011;71758;48.714;9.584;2023-11-21T14:38:02;10.23;;;3.55;;
82176;SDS011;71758;48.714;9.584;2023-11-21T14:40:30;3.03;;;1.02;;
82176;SDS011;71758;48.714;9.584;2023-11-21T14:43:01;2.47;;;0.70;;
82176;SDS011;71758;48.714;9.584;2023-11-21T14:45:31;2.65;;;0.60;;
82176;SDS011;71758;48.714;9.584;2023-11-21T14:47:57;2.92;;;0.82;;
82176;SDS011;71758;48.714;9.584;2023-11-21T14:50:33;2.15;;;0.70;;
82176;SDS011;71758;48.714;9.584;2023-11-21T14:53:18;3.05;;;0.80;;
82176;SDS011;71758;48.714;9.584;2023-11-21T14:56:03;4.03;;;1.20;;
82176;SDS011;71758;48.714;9.584;2023-11-21T14:58:29;4.07;;;1.02;;
82176;SDS011;71758;48.714;9.584;2023-11-21T15:00:58;3.80;;;1.33;;
82176;SDS011;71758;48.714;9.584;2023-11-21T15:03:24;3.13;;;1.10;;
82176;SDS011;71758;48.714;9.584;2023-11-21T15:06:08;3.15;;;1.10;;